sensor_id;sensor_type;location;lat;lon;timestamp;P1;durP1;ratioP1;P2;durP2;ratioP2
21258;SDS011;10787;53.364;-1.480;2023-02-03T00:01:59;4.53;;;2.63;;
21258;SDS011;10787;53.364;-1.480;2023-02-03T00:04:25;6.73;;;2.47;;
21258;SDS011;10787;53.364;-1.480;2023-02-03T00:06:50;7.30;;;2.30;;
21258;SDS011;10787;53.364;-1.480;2023-02-03T00:09:16;5.77;;;2.50;;
21258;SDS011;10787;53.364;-1.480;2023-02-03T00:11:42;3.87;;;2.00;;
21258;SDS011;10787;53.364;-1.480;2023-02-03T00:14:08;6.53;;;2.37;;
21258;SDS011;10787;53.364;-1.480;2023-02-03T00:16:34;4.90;;;2.10;;
21258;SDS011;10787;53.364;-1.480;2023-02-03T00:19:00;4.70;;;2.40;;
21258;SDS011;10787;53.364;-1.480;2023-02-03T00:21:25;6.80;;;2.50;;
21258;SDS011;10787;53.364;-1.480;2023-02-03T00:23:52;7.93;;;2.77;;
21258;SDS011;10787;53.364;-1.480;2023-02-03T00:26:18;4.73;;;2.40;;
21258;SDS011;10787;53.364;-1.480;2023-02-03T00:28:44;5.83;;;2.50;;
21258;SDS011;10787;53.364;-1.480;2023-02-03T00:31:15;5.37;;;2.57;;
21258;SDS011;10787;53.364;-1.480;2023-02-03T00:33:47;6.57;;;2.50;;
21258;SDS011;10787;53.364;-1.480;2023-02-03T00:36:17;6.03;;;2.30;;
21258;SDS011;10787;53.364;-1.480;2023-02-03T00:38:43;6.93;;;2.50;;
21258;SDS011;10787;53.364;-1.480;2023-02-03T00:41:09;6.00;;;2.63;;
21258;SDS011;10787;53.364;-1.480;2023-02-03T00:43:34;4.13;;;2.30;;
21258;SDS011;10787;53.364;-1.480;2023-02-03T00:46:00;5.63;;;2.50;;
21258;SDS011;10787;53.364;-1.480;2023-02-03T00:48:26;6.43;;;2.80;;
21258;SDS011;10787;53.364;-1.480;2023-02-03T00:50:51;6.47;;;2.97;;
21258;SDS011;10787;53.364;-1.480;2023-02-03T00:53:17;5.63;;;2.97;;
21258;SDS011;10787;53.364;-1.480;2023-02-03T00:55:43;6.27;;;3.40;;
21258;SDS011;10787;53.364;-1.480;2023-02-03T00:58:09;7.13;;;4.20;;
21258;SDS011;10787;53.364;-1.480;2023-02-03T01:00:35;7.50;;;4.10;;
21258;SDS011;10787;53.364;-1.480;2023-02-03T01:03:00;6.37;;;4.43;;
21258;SDS011;10787;53.364;-1.480;2023-02-03T01:05:27;6.00;;;4.07;;
21258;SDS011;10787;53.364;-1.480;2023-02-03T01:07:53;9.30;;;3.90;;
21258;SDS011;10787;53.364;-1.480;2023-02-03T01:10:18;6.57;;;3.70;;
21258;SDS011;10787;53.364;-1.480;2023-02-03T01:12:44;5.67;;;3.93;;
21258;SDS011;10787;53.364;-1.480;2023-02-03T01:15:10;6.23;;;3.57;;
21258;SDS011;10787;53.364;-1.480;2023-02-03T01:17:36;5.77;;;3.50;;
21258;SDS011;10787;53.364;-1.480;2023-02-03T01:20:01;5.83;;;3.17;;
21258;SDS011;10787;53.364;-1.480;2023-02-03T01:22:28;7.67;;;3.60;;
21258;SDS011;10787;53.364;-1.480;2023-02-03T01:24:54;4.90;;;2.73;;
21258;SDS011;10787;53.364;-1.480;2023-02-03T01:27:20;4.70;;;2.87;;
21258;SDS011;10787;53.364;-1.480;2023-02-03T01:29:46;6.33;;;3.10;;
21258;SDS011;10787;53.364;-1.480;2023-02-03T01:32:11;4.83;;;2.90;;
21258;SDS011;10787;53.364;-1.480;2023-02-03T01:34:37;6.30;;;3.63;;
21258;SDS011;10787;53.364;-1.480;2023-02-03T01:37:03;8.37;;;3.80;;
21258;SDS011;10787;53.364;-1.480;2023-02-03T01:39:28;5.03;;;3.50;;
21258;SDS011;10787;53.364;-1.480;2023-02-03T01:41:54;6.50;;;3.80;;
21258;SDS011;10787;53.364;-1.480;2023-02-03T01:50:14;5.27;;;3.40;;
21258;SDS011;10787;53.364;-1.480;2023-02-03T01:52:48;7.30;;;3.60;;
21258;SDS011;10787;53.364;-1.480;2023-02-03T01:55:22;8.53;;;4.07;;
21258;SDS011;10787;53.364;-1.480;2023-02-03T01:57:57;6.27;;;4.10;;
21258;SDS011;10787;53.364;-1.480;2023-02-03T02:00:33;6.30;;;4.10;;
21258;SDS011;10787;53.364;-1.480;2023-02-03T02:02:59;7.40;;;3.90;;
21258;SDS011;10787;53.364;-1.480;2023-02-03T02:05:30;5.53;;;3.97;;
21258;SDS011;10787;53.364;-1.480;2023-02-03T02:07:59;9.10;;;4.43;;
21258;SDS011;10787;53.364;-1.480;2023-02-03T02:10:27;8.43;;;4.87;;
21258;SDS011;10787;53.364;-1.480;2023-02-03T02:12:55;9.63;;;5.03;;
21258;SDS011;10787;53.364;-1.480;2023-02-03T02:15:22;10.43;;;6.17;;
21258;SDS011;10787;53.364;-1.480;2023-02-03T02:38:14;12.47;;;9.23;;
21258;SDS011;10787;53.364;-1.480;2023-02-03T02:46:18;15.00;;;9.40;;
21258;SDS011;10787;53.364;-1.480;2023-02-03T02:51:27;13.73;;;10.13;;
21258;SDS011;10787;53.364;-1.480;2023-02-03T02:53:56;13.50;;;9.63;;
21258;SDS011;10787;53.364;-1.480;2023-02-03T02:56:26;12.30;;;9.67;;
21258;SDS011;10787;53.364;-1.480;2023-02-03T02:58:54;9.77;;;7.93;;
21258;SDS011;10787;53.364;-1.480;2023-02-03T03:01:23;12.87;;;7.50;;
21258;SDS011;10787;53.364;-1.480;2023-02-03T03:03:49;11.10;;;7.03;;
21258;SDS011;10787;53.364;-1.480;2023-02-03T03:06:20;10.60;;;6.87;;
21258;SDS011;10787;53.364;-1.480;2023-02-03T03:08:52;9.50;;;6.50;;
21258;SDS011;10787;53.364;-1.480;2023-02-03T03:11:25;9.97;;;7.00;;
21258;SDS011;10787;53.364;-1.480;2023-02-03T03:13:55;11.30;;;6.60;;
21258;SDS011;10787;53.364;-1.480;2023-02-03T03:16:22;13.53;;;7.43;;
21258;SDS011;10787;53.364;-1.480;2023-02-03T03:19:09;9.97;;;7.00;;
21258;SDS011;10787;53.364;-1.480;2023-02-03T03:21:42;10.83;;;6.67;;
21258;SDS011;10787;53.364;-1.480;2023-02-03T03:24:13;10.53;;;6.07;;
21258;SDS011;10787;53.364;-1.480;2023-02-03T03:26:48;9.80;;;5.53;;
21258;SDS011;10787;53.364;-1.480;2023-02-03T03:29:20;9.37;;;4.70;;
21258;SDS011;10787;53.364;-1.480;2023-02-03T03:31:54;8.63;;;4.97;;
21258;SDS011;10787;53.364;-1.480;2023-02-03T03:34:20;8.73;;;4.50;;
21258;SDS011;10787;53.364;-1.480;2023-02-03T03:36:46;9.37;;;4.83;;
21258;SDS011;10787;53.364;-1.480;2023-02-03T03:39:28;10.93;;;4.90;;
21258;SDS011;10787;53.364;-1.480;2023-02-03T03:42:07;7.60;;;4.43;;
21258;SDS011;10787;53.364;-1.480;2023-02-03T03:44:38;7.93;;;5.07;;
21258;SDS011;10787;53.364;-1.480;2023-02-03T03:47:13;8.97;;;4.60;;
21258;SDS011;10787;53.364;-1.480;2023-02-03T03:49:41;8.50;;;4.87;;
21258;SDS011;10787;53.364;-1.480;2023-02-03T03:52:09;8.80;;;5.70;;
21258;SDS011;10787;53.364;-1.480;2023-02-03T03:54:42;10.37;;;5.87;;
21258;SDS011;10787;53.364;-1.480;2023-02-03T03:59:45;10.80;;;6.40;;
21258;SDS011;10787;53.364;-1.480;2023-02-03T04:02:13;14.03;;;6.57;;
21258;SDS011;10787;53.364;-1.480;2023-02-03T04:04:41;11.53;;;6.50;;
21258;SDS011;10787;53.364;-1.480;2023-02-03T04:07:08;12.23;;;7.30;;
21258;SDS011;10787;53.364;-1.480;2023-02-03T04:09:36;11.20;;;6.73;;
21258;SDS011;10787;53.364;-1.480;2023-02-03T04:12:02;12.30;;;7.30;;
21258;SDS011;10787;53.364;-1.480;2023-02-03T04:14:30;10.73;;;7.47;;
21258;SDS011;10787;53.364;-1.480;2023-02-03T04:17:02;14.07;;;8.57;;
21258;SDS011;10787;53.364;-1.480;2023-02-03T04:19:28;15.17;;;8.03;;
21258;SDS011;10787;53.364;-1.480;2023-02-03T04:21:54;13.63;;;8.20;;
21258;SDS011;10787;53.364;-1.480;2023-02-03T04:24:20;10.67;;;7.30;;
21258;SDS011;10787;53.364;-1.480;2023-02-03T04:26:46;9.73;;;7.23;;
21258;SDS011;10787;53.364;-1.480;2023-02-03T04:29:12;11.00;;;7.50;;
21258;SDS011;10787;53.364;-1.480;2023-02-03T04:31:38;9.60;;;6.73;;
21258;SDS011;10787;53.364;-1.480;2023-02-03T04:34:04;8.57;;;6.70;;
21258;SDS011;10787;53.364;-1.480;2023-02-03T04:36:30;9.67;;;6.60;;
21258;SDS011;10787;53.364;-1.480;2023-02-03T04:38:56;7.90;;;5.80;;
21258;SDS011;10787;53.364;-1.480;2023-02-03T04:41:21;8.20;;;5.93;;
21258;SDS011;10787;53.364;-1.480;2023-02-03T04:43:47;10.43;;;6.47;;
21258;SDS011;10787;53.364;-1.480;2023-02-03T04:46:13;8.37;;;5.80;;
21258;SDS011;10787;53.364;-1.480;2023-02-03T04:48:39;8.23;;;5.63;;
21258;SDS011;10787;53.364;-1.480;2023-02-03T04:51:06;7.80;;;5.87;;
21258;SDS011;10787;53.364;-1.480;2023-02-03T04:53:32;7.50;;;5.87;;
21258;SDS011;10787;53.364;-1.480;2023-02-03T04:55:58;7.80;;;6.00;;
21258;SDS011;10787;53.364;-1.480;2023-02-03T04:58:24;8.43;;;6.07;;
21258;SDS011;10787;53.364;-1.480;2023-02-03T05:00:53;9.57;;;6.27;;
21258;SDS011;10787;53.364;-1.480;2023-02-03T05:03:20;8.27;;;6.10;;
21258;SDS011;10787;53.364;-1.480;2023-02-03T05:05:46;8.30;;;5.90;;
21258;SDS011;10787;53.364;-1.480;2023-02-03T05:08:13;7.00;;;5.87;;
21258;SDS011;10787;53.364;-1.480;2023-02-03T05:10:38;7.87;;;5.87;;
21258;SDS011;10787;53.364;-1.480;2023-02-03T05:13:04;10.27;;;6.00;;
21258;SDS011;10787;53.364;-1.480;2023-02-03T05:15:30;9.77;;;6.37;;
21258;SDS011;10787;53.364;-1.480;2023-02-03T05:17:55;9.23;;;6.40;;
21258;SDS011;10787;53.364;-1.480;2023-02-03T05:20:21;8.40;;;6.50;;
21258;SDS011;10787;53.364;-1.480;2023-02-03T05:22:47;8.77;;;6.60;;
21258;SDS011;10787;53.364;-1.480;2023-02-03T05:25:13;8.13;;;6.47;;
21258;SDS011;10787;53.364;-1.480;2023-02-03T05:27:39;9.17;;;6.30;;
21258;SDS011;10787;53.364;-1.480;2023-02-03T05:30:06;9.80;;;6.97;;
21258;SDS011;10787;53.364;-1.480;2023-02-03T05:32:33;7.07;;;5.63;;
21258;SDS011;10787;53.364;-1.480;2023-02-03T05:34:59;6.97;;;5.40;;
21258;SDS011;10787;53.364;-1.480;2023-02-03T05:37:24;6.67;;;5.40;;
21258;SDS011;10787;53.364;-1.480;2023-02-03T05:39:50;7.97;;;5.60;;
21258;SDS011;10787;53.364;-1.480;2023-02-03T05:42:16;8.40;;;6.10;;
21258;SDS011;10787;53.364;-1.480;2023-02-03T05:44:42;8.30;;;5.80;;
21258;SDS011;10787;53.364;-1.480;2023-02-03T05:47:07;10.37;;;7.10;;
21258;SDS011;10787;53.364;-1.480;2023-02-03T05:49:33;9.93;;;6.60;;
21258;SDS011;10787;53.364;-1.480;2023-02-03T05:51:59;7.93;;;5.70;;
21258;SDS011;10787;53.364;-1.480;2023-02-03T05:54:25;8.83;;;6.80;;
21258;SDS011;10787;53.364;-1.480;2023-02-03T05:56:51;11.83;;;6.90;;
21258;SDS011;10787;53.364;-1.480;2023-02-03T05:59:16;10.30;;;7.17;;
21258;SDS011;10787;53.364;-1.480;2023-02-03T06:01:42;10.63;;;7.30;;
21258;SDS011;10787;53.364;-1.480;2023-02-03T06:04:08;9.70;;;7.40;;
21258;SDS011;10787;53.364;-1.480;2023-02-03T06:06:34;10.87;;;7.73;;
21258;SDS011;10787;53.364;-1.480;2023-02-03T06:09:00;10.93;;;7.37;;
21258;SDS011;10787;53.364;-1.480;2023-02-03T06:11:30;11.80;;;8.27;;
21258;SDS011;10787;53.364;-1.480;2023-02-03T06:13:58;13.43;;;9.43;;
21258;SDS011;10787;53.364;-1.480;2023-02-03T06:16:24;15.57;;;10.50;;
21258;SDS011;10787;53.364;-1.480;2023-02-03T06:18:51;18.87;;;12.73;;
21258;SDS011;10787;53.364;-1.480;2023-02-03T06:21:17;17.93;;;12.33;;
21258;SDS011;10787;53.364;-1.480;2023-02-03T06:23:44;18.53;;;13.60;;
21258;SDS011;10787;53.364;-1.480;2023-02-03T06:26:09;20.10;;;13.90;;
21258;SDS011;10787;53.364;-1.480;2023-02-03T06:28:35;20.90;;;14.20;;
21258;SDS011;10787;53.364;-1.480;2023-02-03T06:31:02;20.83;;;13.60;;
21258;SDS011;10787;53.364;-1.480;2023-02-03T06:33:29;18.70;;;12.97;;
21258;SDS011;10787;53.364;-1.480;2023-02-03T06:35:55;21.43;;;13.80;;
21258;SDS011;10787;53.364;-1.480;2023-02-03T06:38:20;20.53;;;14.37;;
21258;SDS011;10787;53.364;-1.480;2023-02-03T06:40:46;20.30;;;13.83;;
21258;SDS011;10787;53.364;-1.480;2023-02-03T06:43:12;20.60;;;13.43;;
21258;SDS011;10787;53.364;-1.480;2023-02-03T06:45:38;16.63;;;12.47;;
21258;SDS011;10787;53.364;-1.480;2023-02-03T06:48:04;15.97;;;11.67;;
21258;SDS011;10787;53.364;-1.480;2023-02-03T06:50:31;15.37;;;9.97;;
21258;SDS011;10787;53.364;-1.480;2023-02-03T06:52:57;13.17;;;9.07;;
21258;SDS011;10787;53.364;-1.480;2023-02-03T06:55:23;13.83;;;9.87;;
21258;SDS011;10787;53.364;-1.480;2023-02-03T06:57:49;13.30;;;9.67;;
21258;SDS011;10787;53.364;-1.480;2023-02-03T07:00:16;14.70;;;10.13;;
21258;SDS011;10787;53.364;-1.480;2023-02-03T07:02:42;13.53;;;9.53;;
21258;SDS011;10787;53.364;-1.480;2023-02-03T07:05:08;12.67;;;8.33;;
21258;SDS011;10787;53.364;-1.480;2023-02-03T07:07:34;11.47;;;7.47;;
21258;SDS011;10787;53.364;-1.480;2023-02-03T07:10:02;12.37;;;7.80;;
21258;SDS011;10787;53.364;-1.480;2023-02-03T07:12:27;10.90;;;7.80;;
21258;SDS011;10787;53.364;-1.480;2023-02-03T07:14:53;11.27;;;7.90;;
21258;SDS011;10787;53.364;-1.480;2023-02-03T07:17:19;9.93;;;7.20;;
21258;SDS011;10787;53.364;-1.480;2023-02-03T07:19:44;12.50;;;8.20;;
21258;SDS011;10787;53.364;-1.480;2023-02-03T07:22:10;12.57;;;8.97;;
21258;SDS011;10787;53.364;-1.480;2023-02-03T07:24:36;11.67;;;8.77;;
21258;SDS011;10787;53.364;-1.480;2023-02-03T07:27:02;14.20;;;9.30;;
21258;SDS011;10787;53.364;-1.480;2023-02-03T07:29:28;14.50;;;10.00;;
21258;SDS011;10787;53.364;-1.480;2023-02-03T07:31:54;16.83;;;11.90;;
21258;SDS011;10787;53.364;-1.480;2023-02-03T07:34:19;15.13;;;11.77;;
21258;SDS011;10787;53.364;-1.480;2023-02-03T07:36:45;17.13;;;12.50;;
21258;SDS011;10787;53.364;-1.480;2023-02-03T07:39:11;17.23;;;12.20;;
21258;SDS011;10787;53.364;-1.480;2023-02-03T07:41:36;16.83;;;11.90;;
21258;SDS011;10787;53.364;-1.480;2023-02-03T07:44:02;19.93;;;12.97;;
21258;SDS011;10787;53.364;-1.480;2023-02-03T07:46:29;16.80;;;12.03;;
21258;SDS011;10787;53.364;-1.480;2023-02-03T07:48:54;16.23;;;12.50;;
21258;SDS011;10787;53.364;-1.480;2023-02-03T07:51:20;15.67;;;12.57;;
21258;SDS011;10787;53.364;-1.480;2023-02-03T07:53:46;17.60;;;12.90;;
21258;SDS011;10787;53.364;-1.480;2023-02-03T07:56:12;17.27;;;13.13;;
21258;SDS011;10787;53.364;-1.480;2023-02-03T07:58:38;18.00;;;13.40;;
21258;SDS011;10787;53.364;-1.480;2023-02-03T08:01:14;20.13;;;12.97;;
21258;SDS011;10787;53.364;-1.480;2023-02-03T08:03:40;15.80;;;12.00;;
21258;SDS011;10787;53.364;-1.480;2023-02-03T08:06:07;18.23;;;11.33;;
21258;SDS011;10787;53.364;-1.480;2023-02-03T08:08:33;42.13;;;12.17;;
21258;SDS011;10787;53.364;-1.480;2023-02-03T08:10:59;50.90;;;13.30;;
21258;SDS011;10787;53.364;-1.480;2023-02-03T08:13:25;12.93;;;9.87;;
21258;SDS011;10787;53.364;-1.480;2023-02-03T08:15:51;13.47;;;9.53;;
21258;SDS011;10787;53.364;-1.480;2023-02-03T08:18:16;11.03;;;9.10;;
21258;SDS011;10787;53.364;-1.480;2023-02-03T08:20:43;15.17;;;9.47;;
21258;SDS011;10787;53.364;-1.480;2023-02-03T08:23:12;18.10;;;8.73;;
21258;SDS011;10787;53.364;-1.480;2023-02-03T08:25:37;8.73;;;6.90;;
21258;SDS011;10787;53.364;-1.480;2023-02-03T08:28:03;10.23;;;6.30;;
21258;SDS011;10787;53.364;-1.480;2023-02-03T08:30:29;7.23;;;6.00;;
21258;SDS011;10787;53.364;-1.480;2023-02-03T08:32:55;7.97;;;5.10;;
21258;SDS011;10787;53.364;-1.480;2023-02-03T08:35:22;5.83;;;4.03;;
21258;SDS011;10787;53.364;-1.480;2023-02-03T08:37:48;5.80;;;3.97;;
21258;SDS011;10787;53.364;-1.480;2023-02-03T08:40:14;3.97;;;3.20;;
21258;SDS011;10787;53.364;-1.480;2023-02-03T08:42:40;3.77;;;2.73;;
21258;SDS011;10787;53.364;-1.480;2023-02-03T08:45:06;3.80;;;2.70;;
21258;SDS011;10787;53.364;-1.480;2023-02-03T08:47:32;2.83;;;2.10;;
21258;SDS011;10787;53.364;-1.480;2023-02-03T08:49:58;6.53;;;3.60;;
21258;SDS011;10787;53.364;-1.480;2023-02-03T08:52:23;3.17;;;2.10;;
21258;SDS011;10787;53.364;-1.480;2023-02-03T08:54:49;2.33;;;1.77;;
21258;SDS011;10787;53.364;-1.480;2023-02-03T08:57:15;3.10;;;2.00;;
21258;SDS011;10787;53.364;-1.480;2023-02-03T08:59:41;2.20;;;1.67;;
21258;SDS011;10787;53.364;-1.480;2023-02-03T09:02:10;2.40;;;1.70;;
21258;SDS011;10787;53.364;-1.480;2023-02-03T09:04:38;2.87;;;1.70;;
21258;SDS011;10787;53.364;-1.480;2023-02-03T09:07:04;1.90;;;1.53;;
21258;SDS011;10787;53.364;-1.480;2023-02-03T09:09:30;3.30;;;1.47;;
21258;SDS011;10787;53.364;-1.480;2023-02-03T09:11:56;5.00;;;1.40;;
21258;SDS011;10787;53.364;-1.480;2023-02-03T09:14:29;2.90;;;1.60;;
21258;SDS011;10787;53.364;-1.480;2023-02-03T09:16:56;2.43;;;1.30;;
21258;SDS011;10787;53.364;-1.480;2023-02-03T09:19:21;2.30;;;1.20;;
21258;SDS011;10787;53.364;-1.480;2023-02-03T09:21:47;4.30;;;1.40;;
21258;SDS011;10787;53.364;-1.480;2023-02-03T09:24:13;3.17;;;1.20;;
21258;SDS011;10787;53.364;-1.480;2023-02-03T09:26:39;1.20;;;1.00;;
21258;SDS011;10787;53.364;-1.480;2023-02-03T09:29:05;2.13;;;1.00;;
21258;SDS011;10787;53.364;-1.480;2023-02-03T09:31:31;3.10;;;1.10;;
21258;SDS011;10787;53.364;-1.480;2023-02-03T09:33:58;2.00;;;1.00;;
21258;SDS011;10787;53.364;-1.480;2023-02-03T09:36:24;1.40;;;0.90;;
21258;SDS011;10787;53.364;-1.480;2023-02-03T09:38:50;1.10;;;0.90;;
21258;SDS011;10787;53.364;-1.480;2023-02-03T09:44:04;0.90;;;0.77;;
21258;SDS011;10787;53.364;-1.480;2023-02-03T09:46:43;2.80;;;1.17;;
21258;SDS011;10787;53.364;-1.480;2023-02-03T09:52:18;2.00;;;1.20;;
21258;SDS011;10787;53.364;-1.480;2023-02-03T09:57:29;1.37;;;1.13;;
21258;SDS011;10787;53.364;-1.480;2023-02-03T10:00:00;2.87;;;1.30;;
21258;SDS011;10787;53.364;-1.480;2023-02-03T10:02:48;1.93;;;1.30;;
21258;SDS011;10787;53.364;-1.480;2023-02-03T10:08:46;2.30;;;1.37;;
21258;SDS011;10787;53.364;-1.480;2023-02-03T10:11:41;3.13;;;1.70;;
21258;SDS011;10787;53.364;-1.480;2023-02-03T10:14:35;4.80;;;1.80;;
21258;SDS011;10787;53.364;-1.480;2023-02-03T10:17:37;2.33;;;1.60;;
21258;SDS011;10787;53.364;-1.480;2023-02-03T10:22:39;3.37;;;1.63;;
21258;SDS011;10787;53.364;-1.480;2023-02-03T10:27:59;2.60;;;1.97;;
21258;SDS011;10787;53.364;-1.480;2023-02-03T10:30:28;3.67;;;2.00;;
21258;SDS011;10787;53.364;-1.480;2023-02-03T10:33:08;3.20;;;2.50;;
21258;SDS011;10787;53.364;-1.480;2023-02-03T10:35:36;3.30;;;2.00;;
21258;SDS011;10787;53.364;-1.480;2023-02-03T10:38:33;3.03;;;2.10;;
21258;SDS011;10787;53.364;-1.480;2023-02-03T10:41:07;1.90;;;1.60;;
21258;SDS011;10787;53.364;-1.480;2023-02-03T10:43:34;3.70;;;1.77;;
21258;SDS011;10787;53.364;-1.480;2023-02-03T10:46:15;2.57;;;1.87;;
21258;SDS011;10787;53.364;-1.480;2023-02-03T10:48:42;3.50;;;1.93;;
21258;SDS011;10787;53.364;-1.480;2023-02-03T10:51:19;3.90;;;2.30;;
21258;SDS011;10787;53.364;-1.480;2023-02-03T10:53:46;2.70;;;1.83;;
21258;SDS011;10787;53.364;-1.480;2023-02-03T10:56:13;3.23;;;1.60;;
21258;SDS011;10787;53.364;-1.480;2023-02-03T10:59:21;3.07;;;1.40;;
21258;SDS011;10787;53.364;-1.480;2023-02-03T11:01:49;1.70;;;1.50;;
21258;SDS011;10787;53.364;-1.480;2023-02-03T11:04:25;2.60;;;1.40;;
21258;SDS011;10787;53.364;-1.480;2023-02-03T11:07:04;2.30;;;1.40;;
21258;SDS011;10787;53.364;-1.480;2023-02-03T11:09:38;1.97;;;1.20;;
21258;SDS011;10787;53.364;-1.480;2023-02-03T11:12:09;1.85;;;1.33;;
21258;SDS011;10787;53.364;-1.480;2023-02-03T11:14:39;1.50;;;1.40;;
21258;SDS011;10787;53.364;-1.480;2023-02-03T11:19:42;1.65;;;1.13;;
21258;SDS011;10787;53.364;-1.480;2023-02-03T11:22:10;2.15;;;1.30;;
21258;SDS011;10787;53.364;-1.480;2023-02-03T11:24:46;2.35;;;1.23;;
21258;SDS011;10787;53.364;-1.480;2023-02-03T11:27:13;1.57;;;1.20;;
21258;SDS011;10787;53.364;-1.480;2023-02-03T11:29:45;1.87;;;1.00;;
21258;SDS011;10787;53.364;-1.480;2023-02-03T11:38:02;2.30;;;1.20;;
21258;SDS011;10787;53.364;-1.480;2023-02-03T11:40:29;1.83;;;1.20;;
21258;SDS011;10787;53.364;-1.480;2023-02-03T11:42:59;1.45;;;1.00;;
21258;SDS011;10787;53.364;-1.480;2023-02-03T11:45:38;1.00;;;0.80;;
21258;SDS011;10787;53.364;-1.480;2023-02-03T12:07:27;0.60;;;0.40;;
21258;SDS011;10787;53.364;-1.480;2023-02-03T12:13:15;0.85;;;0.38;;
21258;SDS011;10787;53.364;-1.480;2023-02-03T12:24:10;0.55;;;0.40;;
21258;SDS011;10787;53.364;-1.480;2023-02-03T12:29:34;0.55;;;0.20;;
21258;SDS011;10787;53.364;-1.480;2023-02-03T12:34:47;0.73;;;0.40;;
21258;SDS011;10787;53.364;-1.480;2023-02-03T12:37:28;1.30;;;0.55;;
21258;SDS011;10787;53.364;-1.480;2023-02-03T12:40:05;1.85;;;0.65;;
21258;SDS011;10787;53.364;-1.480;2023-02-03T12:42:49;0.60;;;0.40;;
21258;SDS011;10787;53.364;-1.480;2023-02-03T12:45:39;0.30;;;0.30;;
21258;SDS011;10787;53.364;-1.480;2023-02-03T12:48:11;0.77;;;0.40;;
21258;SDS011;10787;53.364;-1.480;2023-02-03T12:50:41;0.45;;;0.30;;
21258;SDS011;10787;53.364;-1.480;2023-02-03T12:55:43;1.15;;;0.70;;
21258;SDS011;10787;53.364;-1.480;2023-02-03T13:08:22;0.93;;;0.50;;
21258;SDS011;10787;53.364;-1.480;2023-02-03T13:13:39;0.85;;;0.60;;
21258;SDS011;10787;53.364;-1.480;2023-02-03T13:16:09;1.20;;;0.50;;
21258;SDS011;10787;53.364;-1.480;2023-02-03T13:18:38;1.63;;;0.57;;
21258;SDS011;10787;53.364;-1.480;2023-02-03T13:21:09;1.10;;;0.50;;
21258;SDS011;10787;53.364;-1.480;2023-02-03T13:23:36;0.88;;;0.50;;
21258;SDS011;10787;53.364;-1.480;2023-02-03T13:42:45;1.63;;;0.60;;
21258;SDS011;10787;53.364;-1.480;2023-02-03T13:47:49;2.25;;;1.30;;
21258;SDS011;10787;53.364;-1.480;2023-02-03T13:50:20;1.98;;;0.60;;
21258;SDS011;10787;53.364;-1.480;2023-02-03T13:52:53;2.00;;;0.70;;
21258;SDS011;10787;53.364;-1.480;2023-02-03T13:55:27;3.15;;;1.92;;
21258;SDS011;10787;53.364;-1.480;2023-02-03T13:58:26;1.10;;;0.57;;
21258;SDS011;10787;53.364;-1.480;2023-02-03T14:05:53;1.55;;;0.60;;
21258;SDS011;10787;53.364;-1.480;2023-02-03T14:13:52;12.85;;;6.70;;
21258;SDS011;10787;53.364;-1.480;2023-02-03T14:16:23;16.95;;;8.40;;
21258;SDS011;10787;53.364;-1.480;2023-02-03T14:18:49;14.75;;;6.80;;
21258;SDS011;10787;53.364;-1.480;2023-02-03T14:21:18;17.67;;;9.70;;
21258;SDS011;10787;53.364;-1.480;2023-02-03T14:23:50;9.63;;;5.32;;
21258;SDS011;10787;53.364;-1.480;2023-02-03T14:26:23;7.60;;;3.78;;
21258;SDS011;10787;53.364;-1.480;2023-02-03T14:28:56;14.20;;;7.10;;
21258;SDS011;10787;53.364;-1.480;2023-02-03T14:31:22;8.20;;;4.63;;
21258;SDS011;10787;53.364;-1.480;2023-02-03T14:36:38;6.05;;;2.60;;
21258;SDS011;10787;53.364;-1.480;2023-02-03T14:59:02;10.60;;;5.22;;
21258;SDS011;10787;53.364;-1.480;2023-02-03T15:01:05;8.05;;;4.13;;
21258;SDS011;10787;53.364;-1.480;2023-02-03T15:03:32;6.68;;;3.25;;
21258;SDS011;10787;53.364;-1.480;2023-02-03T15:06:03;3.65;;;1.70;;
21258;SDS011;10787;53.364;-1.480;2023-02-03T15:11:14;7.00;;;3.22;;
21258;SDS011;10787;53.364;-1.480;2023-02-03T15:13:46;6.78;;;2.88;;
21258;SDS011;10787;53.364;-1.480;2023-02-03T15:16:13;5.22;;;2.50;;
21258;SDS011;10787;53.364;-1.480;2023-02-03T15:18:42;3.38;;;1.45;;
21258;SDS011;10787;53.364;-1.480;2023-02-03T15:21:13;1.95;;;0.90;;
21258;SDS011;10787;53.364;-1.480;2023-02-03T15:23:44;2.45;;;0.90;;
21258;SDS011;10787;53.364;-1.480;2023-02-03T15:26:21;1.90;;;0.80;;
21258;SDS011;10787;53.364;-1.480;2023-02-03T15:29:01;3.38;;;0.98;;
21258;SDS011;10787;53.364;-1.480;2023-02-03T15:31:42;2.55;;;0.82;;
21258;SDS011;10787;53.364;-1.480;2023-02-03T15:34:29;2.20;;;0.90;;
21258;SDS011;10787;53.364;-1.480;2023-02-03T15:37:07;1.98;;;0.85;;
21258;SDS011;10787;53.364;-1.480;2023-02-03T15:40:00;4.00;;;1.70;;
21258;SDS011;10787;53.364;-1.480;2023-02-03T15:45:07;3.10;;;1.08;;
21258;SDS011;10787;53.364;-1.480;2023-02-03T15:47:40;3.60;;;1.42;;
21258;SDS011;10787;53.364;-1.480;2023-02-03T15:53:24;2.33;;;1.00;;
21258;SDS011;10787;53.364;-1.480;2023-02-03T15:55:55;2.43;;;1.00;;
21258;SDS011;10787;53.364;-1.480;2023-02-03T15:58:43;2.83;;;1.17;;
21258;SDS011;10787;53.364;-1.480;2023-02-03T16:01:11;2.97;;;1.10;;
21258;SDS011;10787;53.364;-1.480;2023-02-03T16:03:45;1.67;;;1.00;;
21258;SDS011;10787;53.364;-1.480;2023-02-03T16:06:23;3.17;;;1.00;;
21258;SDS011;10787;53.364;-1.480;2023-02-03T16:08:53;5.20;;;1.30;;
21258;SDS011;10787;53.364;-1.480;2023-02-03T16:11:20;4.77;;;1.47;;
21258;SDS011;10787;53.364;-1.480;2023-02-03T16:13:46;4.73;;;1.67;;
21258;SDS011;10787;53.364;-1.480;2023-02-03T16:19:03;7.13;;;3.37;;
21258;SDS011;10787;53.364;-1.480;2023-02-03T16:21:41;4.10;;;2.40;;
21258;SDS011;10787;53.364;-1.480;2023-02-03T16:27:19;6.17;;;2.40;;
21258;SDS011;10787;53.364;-1.480;2023-02-03T16:33:00;12.27;;;3.60;;
21258;SDS011;10787;53.364;-1.480;2023-02-03T16:35:55;7.63;;;3.83;;
21258;SDS011;10787;53.364;-1.480;2023-02-03T16:38:49;5.90;;;2.60;;
21258;SDS011;10787;53.364;-1.480;2023-02-03T16:41:34;6.13;;;2.17;;
21258;SDS011;10787;53.364;-1.480;2023-02-03T16:44:20;5.80;;;2.00;;
21258;SDS011;10787;53.364;-1.480;2023-02-03T16:47:14;9.90;;;2.03;;
21258;SDS011;10787;53.364;-1.480;2023-02-03T16:50:03;5.80;;;1.93;;
21258;SDS011;10787;53.364;-1.480;2023-02-03T16:52:48;6.17;;;2.40;;
21258;SDS011;10787;53.364;-1.480;2023-02-03T16:55:14;6.60;;;2.57;;
21258;SDS011;10787;53.364;-1.480;2023-02-03T16:57:39;6.70;;;2.60;;
21258;SDS011;10787;53.364;-1.480;2023-02-03T17:00:05;11.53;;;5.43;;
21258;SDS011;10787;53.364;-1.480;2023-02-03T17:02:33;10.87;;;3.50;;
21258;SDS011;10787;53.364;-1.480;2023-02-03T17:04:59;10.33;;;3.43;;
21258;SDS011;10787;53.364;-1.480;2023-02-03T17:07:24;8.57;;;3.60;;
21258;SDS011;10787;53.364;-1.480;2023-02-03T17:09:50;10.23;;;3.47;;
21258;SDS011;10787;53.364;-1.480;2023-02-03T17:12:16;5.60;;;2.90;;
21258;SDS011;10787;53.364;-1.480;2023-02-03T17:14:41;7.53;;;2.50;;
21258;SDS011;10787;53.364;-1.480;2023-02-03T17:17:07;8.00;;;2.70;;
21258;SDS011;10787;53.364;-1.480;2023-02-03T17:19:33;7.43;;;2.83;;
21258;SDS011;10787;53.364;-1.480;2023-02-03T17:21:59;6.40;;;2.40;;
21258;SDS011;10787;53.364;-1.480;2023-02-03T17:24:24;5.53;;;2.30;;
21258;SDS011;10787;53.364;-1.480;2023-02-03T17:26:50;7.20;;;2.73;;
21258;SDS011;10787;53.364;-1.480;2023-02-03T17:29:16;8.50;;;2.47;;
21258;SDS011;10787;53.364;-1.480;2023-02-03T17:31:42;6.87;;;2.50;;
21258;SDS011;10787;53.364;-1.480;2023-02-03T17:34:08;7.97;;;2.67;;
21258;SDS011;10787;53.364;-1.480;2023-02-03T17:36:33;10.57;;;2.37;;
21258;SDS011;10787;53.364;-1.480;2023-02-03T17:38:59;7.87;;;2.70;;
21258;SDS011;10787;53.364;-1.480;2023-02-03T17:41:25;7.37;;;2.93;;
21258;SDS011;10787;53.364;-1.480;2023-02-03T17:43:54;8.23;;;2.90;;
21258;SDS011;10787;53.364;-1.480;2023-02-03T17:46:23;11.70;;;2.97;;